createdAt,value
2023-03-15T00:00:59.879Z,5.25
2023-03-15T00:02:03.755Z,5.00
2023-03-15T00:03:07.604Z,6.00
2023-03-15T00:04:11.626Z,5.50
2023-03-15T00:05:15.960Z,5.50
2023-03-15T00:06:19.614Z,5.00
2023-03-15T00:07:23.523Z,5.50
2023-03-15T00:08:27.271Z,5.00
2023-03-15T00:09:31.208Z,4.50
2023-03-15T00:10:35.002Z,5.50
2023-03-15T00:11:39.106Z,5.75
2023-03-15T00:12:44.570Z,7.00
2023-03-15T00:13:48.949Z,6.50
2023-03-15T00:14:53.458Z,5.25
2023-03-15T00:15:58.224Z,6.50
2023-03-15T00:17:03.002Z,6.00
2023-03-15T00:18:07.311Z,4.25
2023-03-15T00:19:11.410Z,5.75
2023-03-15T00:20:15.308Z,6.50
2023-03-15T00:21:19.622Z,5.50
2023-03-15T00:22:23.723Z,6.00
2023-03-15T00:23:27.720Z,6.50
2023-03-15T00:24:32.248Z,6.00
2023-03-15T00:25:36.552Z,5.50
2023-03-15T00:26:40.856Z,4.25
2023-03-15T00:27:44.852Z,5.00
2023-03-15T00:28:49.379Z,4.75
2023-03-15T00:29:53.573Z,5.00
2023-03-15T00:30:57.799Z,4.75
2023-03-15T00:32:01.679Z,5.50
2023-03-15T00:33:05.579Z,4.75
2023-03-15T00:34:09.616Z,5.50
2023-03-15T00:35:13.272Z,5.50
2023-03-15T00:36:17.176Z,6.50
2023-03-15T00:37:21.300Z,6.00
2023-03-15T00:38:24.964Z,5.50
2023-03-15T00:39:29.185Z,5.75
2023-03-15T00:40:32.970Z,4.50
2023-03-15T00:41:37.289Z,4.00
2023-03-15T00:42:41.276Z,5.50
2023-03-15T00:43:46.930Z,8.50
2023-03-15T00:44:50.917Z,7.00
2023-03-15T00:45:55.330Z,5.25
2023-03-15T00:46:59.886Z,5.50
2023-03-15T00:48:04.867Z,5.50
2023-03-15T00:49:09.180Z,5.50
2023-03-15T00:50:13.499Z,6.25
2023-03-15T00:51:17.493Z,7.00
2023-03-15T00:52:21.909Z,6.50
2023-03-15T00:53:25.901Z,4.50
2023-03-15T00:54:30.338Z,5.25
2023-03-15T00:55:34.521Z,5.25
2023-03-15T00:56:39.134Z,6.00
2023-03-15T00:57:43.438Z,5.75
2023-03-15T00:58:48.067Z,6.00
2023-03-15T00:59:52.259Z,5.50
2023-03-15T01:00:56.239Z,5.50
2023-03-15T01:02:00.486Z,6.25
2023-03-15T01:03:04.633Z,5.50
2023-03-15T01:04:08.669Z,5.00
2023-03-15T01:05:12.573Z,6.50
2023-03-15T01:06:16.696Z,6.50
2023-03-15T01:07:20.777Z,7.00
2023-03-15T01:08:24.677Z,8.50
2023-03-15T01:09:28.981Z,7.00
2023-03-15T01:10:32.674Z,5.25
2023-03-15T01:11:36.592Z,5.50
2023-03-15T01:12:40.680Z,5.25
2023-03-15T01:13:44.460Z,5.50
2023-03-15T01:14:48.469Z,6.00
2023-03-15T01:15:52.322Z,5.00
2023-03-15T01:16:56.166Z,5.00
2023-03-15T01:17:59.909Z,4.00
2023-03-15T01:19:03.776Z,4.50
2023-03-15T01:20:07.559Z,5.00
2023-03-15T01:21:11.615Z,5.50
2023-03-15T01:22:15.767Z,5.00
2023-03-15T01:23:19.775Z,6.00
2023-03-15T01:24:24.082Z,5.50
2023-03-15T01:25:28.282Z,5.00
2023-03-15T01:26:32.287Z,6.00
2023-03-15T01:27:36.090Z,6.00
2023-03-15T01:28:39.786Z,5.00
2023-03-15T01:29:43.890Z,5.00
2023-03-15T01:30:49.689Z,4.25
2023-03-15T01:31:53.008Z,5.25
2023-03-15T01:32:56.954Z,5.50
2023-03-15T01:34:00.813Z,4.50
2023-03-15T01:35:05.215Z,5.50
2023-03-15T01:36:09.356Z,5.00
2023-03-15T01:37:13.432Z,5.50
2023-03-15T01:38:17.728Z,7.00
2023-03-15T01:39:22.152Z,5.75
2023-03-15T01:40:26.448Z,4.50
2023-03-15T01:41:30.556Z,6.50
2023-03-15T01:42:35.063Z,7.00
2023-03-15T01:43:39.479Z,5.50
2023-03-15T01:44:43.582Z,5.50
2023-03-15T01:45:48.296Z,5.00
2023-03-15T01:46:52.840Z,5.00
2023-03-15T01:47:57.233Z,5.00
2023-03-15T01:49:01.438Z,6.50
2023-03-15T01:50:05.633Z,6.50
2023-03-15T01:51:09.735Z,6.00
2023-03-15T01:52:13.963Z,6.00
2023-03-15T01:53:18.151Z,6.00
2023-03-15T01:54:22.455Z,6.25
2023-03-15T01:55:26.763Z,6.00
2023-03-15T01:56:31.070Z,6.00
2023-03-15T01:57:35.190Z,5.50
2023-03-15T01:58:39.386Z,6.50
2023-03-15T01:59:43.614Z,5.75
2023-03-15T02:00:48.153Z,6.00
2023-03-15T02:01:52.255Z,6.00
2023-03-15T02:02:56.410Z,6.50
2023-03-15T02:04:00.813Z,7.25
2023-03-15T02:05:05.036Z,8.00
2023-03-15T02:06:09.359Z,9.00
2023-03-15T02:07:13.742Z,7.50
2023-03-15T02:08:17.851Z,6.00
2023-03-15T02:09:22.257Z,6.50
2023-03-15T02:10:26.566Z,6.25
2023-03-15T02:11:30.874Z,5.50
2023-03-15T02:12:34.674Z,7.00
2023-03-15T02:13:38.676Z,7.00
2023-03-15T02:14:42.776Z,6.00
2023-03-15T02:15:46.880Z,6.00
2023-03-15T02:16:50.929Z,5.75
2023-03-15T02:17:54.989Z,6.00
2023-03-15T02:18:59.093Z,5.00
2023-03-15T02:20:03.057Z,6.00
2023-03-15T02:21:06.797Z,5.50
2023-03-15T02:22:10.883Z,6.50
2023-03-15T02:23:14.888Z,6.50
2023-03-15T02:24:18.995Z,6.50
2023-03-15T02:25:22.886Z,5.25
2023-03-15T02:26:26.805Z,6.25
2023-03-15T02:27:30.639Z,7.00
2023-03-15T02:28:34.699Z,6.00
2023-03-15T02:29:38.494Z,5.75
2023-03-15T02:30:43.618Z,6.50
2023-03-15T02:31:47.852Z,5.50
2023-03-15T02:32:52.289Z,7.00
2023-03-15T02:33:56.637Z,6.00
2023-03-15T02:35:00.645Z,6.50
2023-03-15T02:36:04.650Z,6.50
2023-03-15T02:37:08.650Z,6.00
2023-03-15T02:38:12.948Z,6.00
2023-03-15T02:39:17.472Z,6.00
2023-03-15T02:40:21.575Z,6.00
2023-03-15T02:41:25.875Z,6.50
2023-03-15T02:42:30.183Z,6.50
2023-03-15T02:43:34.393Z,5.75
2023-03-15T02:44:38.399Z,6.00
2023-03-15T02:45:42.859Z,6.50
2023-03-15T02:46:46.918Z,5.50
2023-03-15T02:47:50.918Z,5.25
2023-03-15T02:48:55.446Z,5.50
2023-03-15T02:49:59.540Z,4.50
2023-03-15T02:51:03.737Z,5.00
2023-03-15T02:52:07.745Z,5.50
2023-03-15T02:53:12.039Z,7.00
2023-03-15T02:54:16.255Z,5.50
2023-03-15T02:55:20.880Z,5.00
2023-03-15T02:56:25.178Z,5.50
2023-03-15T02:57:29.602Z,5.50
2023-03-15T02:58:33.700Z,5.00
2023-03-15T02:59:37.801Z,5.50
2023-03-15T03:00:42.202Z,5.25
2023-03-15T03:01:46.412Z,5.25
2023-03-15T03:02:50.426Z,5.00
2023-03-15T03:03:54.526Z,4.50
2023-03-15T03:04:58.835Z,4.75
2023-03-15T03:06:02.828Z,6.25
2023-03-15T03:07:06.644Z,6.00
2023-03-15T03:08:10.721Z,5.50
2023-03-15T03:09:14.625Z,4.50
2023-03-15T03:10:18.529Z,5.00
2023-03-15T03:11:22.522Z,5.50
2023-03-15T03:12:26.422Z,4.67
2023-03-15T03:13:30.117Z,5.50
2023-03-15T03:14:34.128Z,5.00
2023-03-15T03:15:39.508Z,5.50
2023-03-15T03:16:43.178Z,5.50
2023-03-15T03:17:47.347Z,5.00
2023-03-15T03:18:51.568Z,5.00
2023-03-15T03:19:55.864Z,5.50
2023-03-15T03:21:00.091Z,5.00
2023-03-15T03:22:03.958Z,5.50
2023-03-15T03:23:07.770Z,5.00
2023-03-15T03:24:11.865Z,5.00
2023-03-15T03:25:16.083Z,5.00
2023-03-15T03:26:19.978Z,4.50
2023-03-15T03:27:23.866Z,6.50
2023-03-15T03:28:27.883Z,6.50
2023-03-15T03:29:32.200Z,6.00
2023-03-15T03:30:36.035Z,5.75
2023-03-15T03:31:40.071Z,5.50
2023-03-15T03:32:43.841Z,5.75
2023-03-15T03:33:47.674Z,6.00
2023-03-15T03:34:51.454Z,6.00
2023-03-15T03:35:55.781Z,6.25
2023-03-15T03:37:00.095Z,6.00
2023-03-15T03:38:03.976Z,4.75
2023-03-15T03:39:08.192Z,5.00
2023-03-15T03:40:12.304Z,6.00
2023-03-15T03:41:16.194Z,6.50
2023-03-15T03:42:20.510Z,5.50
2023-03-15T03:43:24.809Z,4.50
2023-03-15T03:44:29.239Z,5.50
2023-03-15T03:45:33.546Z,6.00
2023-03-15T03:46:37.416Z,5.50
2023-03-15T03:47:41.953Z,5.00
2023-03-15T03:48:46.443Z,4.75
2023-03-15T03:49:50.768Z,5.75
2023-03-15T03:50:54.851Z,5.75
2023-03-15T03:51:59.064Z,6.00
2023-03-15T03:53:03.198Z,5.50
2023-03-15T03:54:07.912Z,5.25
2023-03-15T03:55:12.194Z,5.25
2023-03-15T03:56:16.805Z,5.50
2023-03-15T03:57:20.714Z,3.75
2023-03-15T03:58:24.913Z,5.00
2023-03-15T04:00:46.035Z,5.00
2023-03-15T04:01:50.343Z,4.75
2023-03-15T04:02:54.687Z,4.75
2023-03-15T04:03:59.246Z,5.00
2023-03-15T04:05:03.767Z,5.00
2023-03-15T04:06:07.895Z,5.00
2023-03-15T04:07:12.085Z,6.00
2023-03-15T04:08:16.486Z,4.75
2023-03-15T04:09:20.518Z,4.00
2023-03-15T04:10:24.699Z,4.25
2023-03-15T04:11:28.913Z,4.25
2023-03-15T04:12:33.024Z,4.00
2023-03-15T04:13:37.725Z,5.50
2023-03-15T04:14:41.926Z,6.25
2023-03-15T04:15:46.351Z,5.75
2023-03-15T04:16:50.466Z,5.00
2023-03-15T04:17:54.647Z,5.75
2023-03-15T04:18:59.171Z,6.50
2023-03-15T04:20:03.268Z,6.50
2023-03-15T04:21:07.571Z,6.50
2023-03-15T04:22:11.286Z,5.75
2023-03-15T04:23:15.486Z,6.25
2023-03-15T04:24:19.782Z,5.50
2023-03-15T04:25:24.009Z,7.00
2023-03-15T04:26:28.105Z,7.50
2023-03-15T04:27:31.933Z,6.50
2023-03-15T04:28:35.691Z,6.00
2023-03-15T04:29:39.690Z,5.50
2023-03-15T04:30:43.485Z,5.00
2023-03-15T04:31:47.413Z,7.00
2023-03-15T04:32:51.705Z,7.00
2023-03-15T04:33:57.435Z,6.50
2023-03-15T04:35:01.640Z,5.50
2023-03-15T04:36:05.572Z,5.25
2023-03-15T04:37:09.448Z,5.50
2023-03-15T04:38:13.541Z,5.25
2023-03-15T04:39:17.639Z,6.00
2023-03-15T04:40:21.544Z,6.00
2023-03-15T04:41:26.081Z,6.25
2023-03-15T04:42:30.357Z,4.00
2023-03-15T04:43:34.470Z,5.50
2023-03-15T04:44:38.264Z,5.50
2023-03-15T04:45:42.203Z,5.75
2023-03-15T04:46:46.287Z,6.00
2023-03-15T04:47:50.693Z,6.00
2023-03-15T04:48:54.822Z,6.50
2023-03-15T04:49:59.088Z,5.00
2023-03-15T04:51:04.031Z,6.00
2023-03-15T04:52:08.427Z,5.50
2023-03-15T04:53:12.634Z,6.00
2023-03-15T04:54:17.043Z,6.00
2023-03-15T04:55:21.654Z,5.50
2023-03-15T04:56:25.876Z,5.00
2023-03-15T04:57:30.183Z,6.50
2023-03-15T04:58:34.378Z,6.50
2023-03-15T04:59:38.681Z,5.75
2023-03-15T05:00:42.930Z,6.00
2023-03-15T05:01:46.859Z,5.00
2023-03-15T05:02:50.902Z,6.00
2023-03-15T05:03:56.420Z,5.25
2023-03-15T05:05:01.440Z,5.50
2023-03-15T05:06:06.068Z,5.50
2023-03-15T05:07:10.376Z,6.00
2023-03-15T05:08:15.306Z,5.25
2023-03-15T05:09:19.845Z,5.25
2023-03-15T05:10:24.034Z,5.50
2023-03-15T05:11:28.273Z,6.00
2023-03-15T05:12:32.640Z,5.50
2023-03-15T05:13:36.752Z,5.25
2023-03-15T05:14:41.044Z,5.00
2023-03-15T05:15:45.365Z,5.50
2023-03-15T05:16:49.580Z,5.75
2023-03-15T05:17:53.786Z,5.00
2023-03-15T05:18:57.880Z,6.00
2023-03-15T05:20:02.494Z,6.00
2023-03-15T05:21:06.696Z,5.00
2023-03-15T05:22:10.823Z,4.00
2023-03-15T05:23:14.932Z,5.00
2023-03-15T05:24:18.896Z,5.00
2023-03-15T05:25:22.902Z,5.75
2023-03-15T05:26:27.634Z,5.50
2023-03-15T05:27:31.932Z,4.50
2023-03-15T05:28:36.057Z,5.50
2023-03-15T05:29:41.260Z,5.00
2023-03-15T05:30:45.260Z,5.00
2023-03-15T05:31:49.204Z,5.00
2023-03-15T05:32:53.384Z,4.50
2023-03-15T05:33:57.376Z,4.25
2023-03-15T05:35:01.600Z,5.50
2023-03-15T05:36:06.102Z,5.25
2023-03-15T05:37:10.589Z,5.25
2023-03-15T05:38:15.514Z,4.50
2023-03-15T05:39:19.844Z,4.50
2023-03-15T05:40:24.638Z,4.75
2023-03-15T05:41:29.565Z,5.00
2023-03-15T05:42:34.605Z,5.00
2023-03-15T05:43:39.315Z,4.75
2023-03-15T05:44:43.611Z,5.50
2023-03-15T05:45:48.734Z,5.00
2023-03-15T05:46:53.463Z,4.50
2023-03-15T05:47:57.671Z,4.25
2023-03-15T05:49:02.109Z,4.50
2023-03-15T05:50:06.497Z,4.50
2023-03-15T05:51:10.709Z,4.25
2023-03-15T05:52:15.024Z,5.50
2023-03-15T05:53:19.624Z,5.50
2023-03-15T05:54:23.827Z,4.50
2023-03-15T05:55:27.970Z,4.75
2023-03-15T05:56:32.559Z,5.50
2023-03-15T05:57:37.009Z,5.00
2023-03-15T05:58:41.306Z,3.75
2023-03-15T05:59:45.492Z,4.25
2023-03-15T06:00:49.797Z,5.50
2023-03-15T06:01:54.308Z,5.50
2023-03-15T06:02:58.515Z,5.75
2023-03-15T06:04:03.072Z,5.25
2023-03-15T06:05:07.334Z,4.50
2023-03-15T06:06:11.452Z,4.25
2023-03-15T06:07:16.266Z,4.00
2023-03-15T06:08:20.669Z,5.25
2023-03-15T06:09:24.992Z,5.00
2023-03-15T06:10:29.181Z,4.50
2023-03-15T06:11:33.682Z,5.00
2023-03-15T06:12:38.004Z,5.00
2023-03-15T06:13:41.996Z,4.50
2023-03-15T06:14:45.995Z,4.00
2023-03-15T06:15:50.417Z,4.75
2023-03-15T06:16:54.756Z,5.00
2023-03-15T06:17:58.786Z,5.00
2023-03-15T06:19:03.332Z,5.50
2023-03-15T06:20:07.446Z,5.00
2023-03-15T06:21:11.950Z,4.50
2023-03-15T06:22:16.464Z,4.75
2023-03-15T06:23:21.491Z,4.00
2023-03-15T06:24:25.801Z,4.00
2023-03-15T06:25:29.912Z,3.50
2023-03-15T06:26:34.213Z,4.00
2023-03-15T06:27:38.836Z,4.50
2023-03-15T06:28:43.740Z,3.00
2023-03-15T06:29:48.444Z,4.00
2023-03-15T06:30:53.089Z,4.00
2023-03-15T06:31:57.987Z,5.00
2023-03-15T06:33:02.673Z,4.50
2023-03-15T06:34:07.640Z,4.00
2023-03-15T06:35:12.244Z,4.75
2023-03-15T06:36:16.864Z,4.75
2023-03-15T06:37:34.243Z,4.50
2023-03-15T06:38:26.309Z,4.50
2023-03-15T06:39:30.234Z,4.00
2023-03-15T06:40:34.314Z,4.50
2023-03-15T06:41:38.636Z,3.75
2023-03-15T06:42:42.820Z,3.75
2023-03-15T06:43:47.156Z,4.25
2023-03-15T06:44:51.384Z,4.25
2023-03-15T06:45:55.565Z,3.50
2023-03-15T06:46:59.554Z,4.00
2023-03-15T06:48:04.063Z,4.75
2023-03-15T06:49:08.171Z,5.00
2023-03-15T06:50:12.320Z,4.50
2023-03-15T06:51:16.351Z,4.00
2023-03-15T06:52:20.600Z,3.75
2023-03-15T06:53:24.995Z,3.50
2023-03-15T06:54:29.214Z,5.00
2023-03-15T06:55:33.210Z,5.25
2023-03-15T06:56:38.427Z,4.25
2023-03-15T06:57:44.634Z,3.50
2023-03-15T06:58:48.598Z,5.00
2023-03-15T06:59:53.494Z,5.25
2023-03-15T07:00:57.333Z,5.25
2023-03-15T07:02:02.017Z,5.00
2023-03-15T07:03:05.810Z,5.00
2023-03-15T07:04:09.635Z,5.50
2023-03-15T07:05:14.251Z,5.00
2023-03-15T07:06:18.333Z,4.50
2023-03-15T07:07:22.355Z,5.00
2023-03-15T07:08:26.648Z,4.50
2023-03-15T07:09:30.587Z,4.50
2023-03-15T07:10:34.857Z,4.25
2023-03-15T07:11:39.378Z,5.00
2023-03-15T07:12:43.667Z,5.00
2023-03-15T07:13:48.276Z,5.50
2023-03-15T07:14:52.495Z,5.50
2023-03-15T07:15:57.157Z,5.50
2023-03-15T07:17:01.341Z,5.00
2023-03-15T07:18:05.421Z,5.00
2023-03-15T07:19:10.770Z,5.50
2023-03-15T07:20:15.159Z,5.50
2023-03-15T07:21:19.364Z,4.50
2023-03-15T07:22:24.285Z,5.50
2023-03-15T07:23:28.492Z,5.00
2023-03-15T07:24:32.901Z,5.00
2023-03-15T07:25:52.033Z,5.00
2023-03-15T07:26:42.464Z,4.25
2023-03-15T07:27:46.892Z,5.00
2023-03-15T07:28:51.161Z,4.00
2023-03-15T07:29:55.770Z,4.50
2023-03-15T07:31:00.394Z,4.00
2023-03-15T07:32:04.596Z,5.25
2023-03-15T07:33:08.765Z,5.00
2023-03-15T07:34:13.223Z,6.00
2023-03-15T07:35:17.439Z,5.00
2023-03-15T07:36:21.730Z,5.00
2023-03-15T07:37:26.036Z,4.50
2023-03-15T07:38:30.138Z,4.50
2023-03-15T07:39:36.298Z,5.50
2023-03-15T07:40:40.414Z,5.50
2023-03-15T07:41:44.516Z,5.00
2023-03-15T07:42:48.509Z,5.00
2023-03-15T07:43:52.600Z,5.50
2023-03-15T07:44:57.196Z,5.25
2023-03-15T07:46:01.683Z,5.25
2023-03-15T07:47:07.569Z,5.00
2023-03-15T07:48:12.176Z,4.75
2023-03-15T07:49:16.689Z,5.00
2023-03-15T07:50:21.195Z,5.00
2023-03-15T07:51:26.230Z,5.75
2023-03-15T07:52:30.843Z,5.00
2023-03-15T07:53:35.452Z,5.75
2023-03-15T07:54:40.210Z,5.50
2023-03-15T07:55:44.698Z,4.75
2023-03-15T07:56:49.498Z,4.75
2023-03-15T07:57:54.438Z,6.00
2023-03-15T07:58:59.276Z,5.75
2023-03-15T08:00:03.884Z,6.50
2023-03-15T08:01:08.486Z,6.25
2023-03-15T08:02:13.239Z,6.00
2023-03-15T08:03:18.300Z,5.25
2023-03-15T08:04:22.938Z,5.75
2023-03-15T08:05:29.067Z,5.75
2023-03-15T08:06:32.673Z,7.50
2023-03-15T08:07:37.089Z,6.50
2023-03-15T08:08:41.704Z,6.25
2023-03-15T08:09:46.512Z,6.75
2023-03-15T08:10:50.765Z,6.50
2023-03-15T08:11:55.567Z,6.00
2023-03-15T08:12:59.680Z,7.00
2023-03-15T08:14:03.996Z,6.75
2023-03-15T08:15:08.120Z,6.50
2023-03-15T08:16:12.613Z,7.50
2023-03-15T08:17:17.397Z,6.25
2023-03-15T08:18:21.909Z,6.50
2023-03-15T08:19:26.337Z,6.75
2023-03-15T08:20:30.905Z,7.00
2023-03-15T08:21:35.349Z,6.00
2023-03-15T08:22:40.089Z,7.00
2023-03-15T08:23:44.706Z,6.50
2023-03-15T08:24:49.720Z,6.00
2023-03-15T08:25:54.690Z,7.00
2023-03-15T08:26:59.359Z,7.00
2023-03-15T08:28:04.178Z,7.00
2023-03-15T08:29:08.883Z,7.00
2023-03-15T08:30:13.002Z,8.00
2023-03-15T08:31:17.487Z,7.50
2023-03-15T08:32:21.617Z,7.50
2023-03-15T08:33:26.118Z,7.00
2023-03-15T08:34:30.636Z,7.00
2023-03-15T08:35:35.717Z,7.00
2023-03-15T08:36:40.201Z,7.00
2023-03-15T08:37:44.575Z,7.25
2023-03-15T08:38:48.998Z,6.50
2023-03-15T08:39:53.611Z,7.50
2023-03-15T08:40:57.622Z,6.50
2023-03-15T08:42:01.434Z,7.25
2023-03-15T08:43:05.445Z,6.50
2023-03-15T08:44:09.333Z,6.00
2023-03-15T08:45:13.024Z,6.50
2023-03-15T08:46:17.147Z,5.75
2023-03-15T08:47:21.035Z,6.50
2023-03-15T08:48:25.514Z,7.25
2023-03-15T08:49:29.926Z,7.00
2023-03-15T08:50:34.157Z,6.50
2023-03-15T08:51:38.651Z,6.50
2023-03-15T08:52:42.793Z,7.75
2023-03-15T08:53:47.060Z,6.50
2023-03-15T08:54:51.774Z,6.00
2023-03-15T08:55:56.189Z,6.00
2023-03-15T08:57:00.495Z,7.50
2023-03-15T08:58:04.824Z,7.50
2023-03-15T08:59:09.271Z,6.75
2023-03-15T09:00:14.771Z,6.25
2023-03-15T09:01:19.085Z,5.75
2023-03-15T09:02:23.331Z,6.75
2023-03-15T09:03:27.484Z,7.50
2023-03-15T09:04:32.096Z,6.50
2023-03-15T09:05:36.410Z,6.50
2023-03-15T09:06:40.646Z,6.75
2023-03-15T09:07:45.138Z,6.25
2023-03-15T09:08:49.659Z,8.00
2023-03-15T09:09:54.435Z,6.00
2023-03-15T09:10:59.372Z,7.00
2023-03-15T09:12:04.322Z,6.00
2023-03-15T09:13:09.205Z,6.50
2023-03-15T09:14:13.824Z,6.75
2023-03-15T09:15:18.650Z,7.00
2023-03-15T09:16:22.840Z,6.00
2023-03-15T09:17:26.989Z,7.00
2023-03-15T09:18:31.366Z,7.00
2023-03-15T09:19:36.092Z,6.50
2023-03-15T09:20:40.698Z,7.00
2023-03-15T09:21:44.980Z,6.50
2023-03-15T09:22:49.235Z,7.25
2023-03-15T09:23:54.237Z,7.00
2023-03-15T09:24:59.567Z,6.00
2023-03-15T09:26:03.871Z,7.00
2023-03-15T09:27:07.981Z,7.00
2023-03-15T09:28:12.193Z,5.75
2023-03-15T09:29:16.323Z,6.00
2023-03-15T09:30:20.308Z,6.00
2023-03-15T09:31:24.683Z,7.00
2023-03-15T09:32:28.882Z,6.50
2023-03-15T09:33:32.838Z,7.00
2023-03-15T09:34:41.959Z,7.00
2023-03-15T09:35:43.062Z,5.00
2023-03-15T09:36:48.733Z,6.75
2023-03-15T09:37:53.880Z,7.00
2023-03-15T09:38:58.194Z,7.00
2023-03-15T09:40:02.902Z,6.00
2023-03-15T09:41:07.676Z,6.50
2023-03-15T09:42:13.226Z,6.50
2023-03-15T09:43:18.138Z,6.50
2023-03-15T09:44:22.661Z,7.50
2023-03-15T09:45:27.192Z,8.50
2023-03-15T09:46:31.719Z,8.50
2023-03-15T09:47:36.246Z,7.50
2023-03-15T09:48:40.643Z,7.50
2023-03-15T09:49:44.932Z,7.50
2023-03-15T09:50:49.248Z,6.00
2023-03-15T09:51:53.876Z,6.75
2023-03-15T09:52:58.182Z,8.25
2023-03-15T09:54:02.739Z,8.00
2023-03-15T09:55:07.073Z,7.75
2023-03-15T09:56:11.487Z,7.75
2023-03-15T09:57:16.141Z,6.50
2023-03-15T09:58:20.713Z,8.00
2023-03-15T09:59:24.941Z,8.50
2023-03-15T10:00:29.845Z,7.25
2023-03-15T10:01:34.482Z,7.50
2023-03-15T10:02:38.874Z,7.25
2023-03-15T10:03:43.052Z,7.25
2023-03-15T10:04:47.383Z,7.00
2023-03-15T10:05:51.688Z,7.50
2023-03-15T10:06:56.098Z,8.00
2023-03-15T10:08:00.608Z,7.50
2023-03-15T10:09:05.030Z,7.75
2023-03-15T10:10:09.555Z,8.50
2023-03-15T10:11:14.168Z,9.00
2023-03-15T10:12:18.974Z,8.50
2023-03-15T10:13:23.956Z,8.00
2023-03-15T10:14:28.121Z,8.00
2023-03-15T10:15:33.699Z,8.00
2023-03-15T10:16:37.943Z,8.75
2023-03-15T10:17:42.367Z,7.50
2023-03-15T10:18:46.564Z,8.00
2023-03-15T10:19:51.380Z,8.25
2023-03-15T10:20:55.908Z,8.00
2023-03-15T10:22:00.204Z,7.75
2023-03-15T10:23:04.560Z,7.50
2023-03-15T10:24:10.051Z,7.00
2023-03-15T10:25:14.460Z,7.25
2023-03-15T10:26:19.076Z,8.50
2023-03-15T10:27:23.480Z,7.50
2023-03-15T10:28:28.000Z,7.75
2023-03-15T10:29:32.916Z,8.00
2023-03-15T10:30:37.740Z,7.25
2023-03-15T10:31:44.908Z,7.00
2023-03-15T10:32:47.923Z,7.50
2023-03-15T10:33:52.511Z,7.00
2023-03-15T10:34:57.438Z,7.50
2023-03-15T10:36:11.042Z,8.50
2023-03-15T10:37:08.193Z,7.75
2023-03-15T10:38:13.116Z,7.75
2023-03-15T10:39:17.736Z,7.00
2023-03-15T10:40:22.577Z,8.00
2023-03-15T10:41:28.898Z,7.00
2023-03-15T10:42:33.318Z,7.25
2023-03-15T10:43:38.134Z,8.00
2023-03-15T10:44:42.867Z,7.00
2023-03-15T10:45:47.695Z,6.00
2023-03-15T10:46:52.335Z,6.00
2023-03-15T10:48:00.757Z,6.75
2023-03-15T10:49:03.068Z,7.50
2023-03-15T10:50:07.582Z,7.00
2023-03-15T10:51:12.624Z,7.00
2023-03-15T10:52:17.003Z,6.00
2023-03-15T10:53:21.617Z,6.50
2023-03-15T10:54:26.751Z,7.50
2023-03-15T10:55:31.268Z,8.00
2023-03-15T10:56:35.813Z,8.50
2023-03-15T10:57:40.118Z,8.00
2023-03-15T10:58:44.710Z,7.50
2023-03-15T10:59:48.909Z,7.50
2023-03-15T11:00:53.721Z,7.75
2023-03-15T11:01:58.476Z,8.50
2023-03-15T11:03:03.022Z,8.50
2023-03-15T11:04:07.860Z,8.50
2023-03-15T11:05:12.346Z,8.00
2023-03-15T11:06:16.738Z,8.50
2023-03-15T11:07:20.811Z,8.50
2023-03-15T11:08:25.118Z,8.50
2023-03-15T11:09:29.524Z,8.75
2023-03-15T11:10:33.635Z,9.50
2023-03-15T11:11:37.829Z,10.50
2023-03-15T11:12:41.937Z,9.50
2023-03-15T11:13:46.242Z,8.00
2023-03-15T11:14:50.553Z,8.50
2023-03-15T11:15:55.049Z,9.25
2023-03-15T11:16:59.273Z,8.00
2023-03-15T11:18:03.577Z,7.50
2023-03-15T11:19:07.886Z,8.50
2023-03-15T11:20:12.310Z,8.50
2023-03-15T11:21:16.618Z,8.00
2023-03-15T11:22:21.071Z,7.50
2023-03-15T11:23:25.527Z,9.00
2023-03-15T11:24:30.341Z,9.25
2023-03-15T11:25:35.074Z,9.50
2023-03-15T11:26:39.620Z,9.75
2023-03-15T11:27:44.111Z,9.00
2023-03-15T11:28:48.626Z,8.50
2023-03-15T11:29:53.000Z,9.50
2023-03-15T11:30:57.528Z,9.50
2023-03-15T11:32:01.945Z,8.50
2023-03-15T11:33:06.617Z,9.00
2023-03-15T11:34:10.980Z,8.50
2023-03-15T11:35:15.493Z,9.50
2023-03-15T11:36:19.994Z,9.50
2023-03-15T11:37:24.298Z,9.50
2023-03-15T11:38:36.955Z,10.00
2023-03-15T11:39:41.219Z,10.50
2023-03-15T11:40:45.526Z,9.50
2023-03-15T11:41:49.950Z,8.50
2023-03-15T11:42:54.763Z,9.50
2023-03-15T11:43:59.707Z,9.00
2023-03-15T11:45:04.306Z,8.75
2023-03-15T11:46:08.845Z,9.75
2023-03-15T11:47:13.415Z,10.00
2023-03-15T11:48:17.867Z,10.50
2023-03-15T11:49:21.732Z,10.50
2023-03-15T11:50:26.457Z,9.50
2023-03-15T11:51:30.890Z,9.50
2023-03-15T11:52:35.483Z,9.75
2023-03-15T11:53:39.787Z,9.00
2023-03-15T11:54:44.197Z,9.00
2023-03-15T11:55:48.915Z,9.00
2023-03-15T11:56:53.442Z,8.50
2023-03-15T11:57:57.735Z,8.75
2023-03-15T11:59:01.947Z,10.00
2023-03-15T12:00:06.107Z,9.67
2023-03-15T12:01:10.473Z,8.50
2023-03-15T12:02:14.781Z,9.50
2023-03-15T12:03:18.898Z,9.00
2023-03-15T12:04:23.174Z,8.50
2023-03-15T12:05:27.376Z,9.25
2023-03-15T12:06:31.892Z,9.00
2023-03-15T12:07:36.402Z,9.00
2023-03-15T12:08:40.404Z,8.25
2023-03-15T12:09:44.810Z,7.75
2023-03-15T12:10:49.337Z,9.00
2023-03-15T12:11:53.635Z,10.00
2023-03-15T12:12:57.620Z,9.50
2023-03-15T12:14:01.740Z,9.00
2023-03-15T12:15:06.118Z,8.00
2023-03-15T12:16:10.196Z,8.50
2023-03-15T12:17:14.438Z,8.00
2023-03-15T12:18:18.766Z,8.00
2023-03-15T12:19:23.283Z,8.00
2023-03-15T12:20:27.604Z,8.75
2023-03-15T12:21:31.709Z,8.75
2023-03-15T12:22:37.476Z,8.00
2023-03-15T12:23:41.862Z,7.50
2023-03-15T12:24:46.153Z,7.25
2023-03-15T12:25:55.026Z,7.75
2023-03-15T12:26:56.098Z,8.25
2023-03-15T12:28:00.618Z,9.00
2023-03-15T12:29:04.930Z,7.50
2023-03-15T12:30:09.331Z,8.25
2023-03-15T12:31:13.952Z,9.00
2023-03-15T12:32:18.252Z,9.00
2023-03-15T12:33:23.076Z,9.50
2023-03-15T12:34:27.901Z,9.00
2023-03-15T12:35:32.228Z,9.00
2023-03-15T12:36:36.529Z,8.50
2023-03-15T12:37:40.724Z,10.50
2023-03-15T12:38:45.226Z,10.00
2023-03-15T12:39:49.962Z,9.50
2023-03-15T12:40:54.015Z,8.50
2023-03-15T12:41:59.710Z,9.25
2023-03-15T12:43:04.227Z,9.50
2023-03-15T12:44:08.414Z,9.00
2023-03-15T12:45:12.935Z,8.75
2023-03-15T12:46:17.126Z,9.00
2023-03-15T12:47:21.443Z,8.50
2023-03-15T12:48:25.749Z,9.25
2023-03-15T12:49:30.054Z,8.75
2023-03-15T12:50:34.262Z,9.50
2023-03-15T12:51:38.562Z,9.50
2023-03-15T12:52:43.204Z,9.00
2023-03-15T12:53:48.217Z,8.00
2023-03-15T12:54:52.829Z,8.00
2023-03-15T12:56:06.206Z,7.75
2023-03-15T12:57:02.279Z,8.50
2023-03-15T12:58:06.188Z,8.50
2023-03-15T12:59:10.394Z,9.00
2023-03-15T13:00:14.899Z,9.25
2023-03-15T13:01:19.099Z,9.75
2023-03-15T13:02:29.522Z,8.25
2023-03-15T13:03:28.585Z,9.50
2023-03-15T13:04:32.718Z,9.00
2023-03-15T13:05:36.934Z,8.50
2023-03-15T13:06:41.140Z,9.25
2023-03-15T13:07:51.053Z,9.50
2023-03-15T13:08:50.578Z,9.00
2023-03-15T13:09:54.546Z,8.75
2023-03-15T13:10:58.781Z,9.00
2023-03-15T13:12:03.211Z,9.50
2023-03-15T13:13:07.703Z,9.75
2023-03-15T13:14:12.013Z,10.25
2023-03-15T13:15:16.232Z,9.50
2023-03-15T13:16:20.582Z,10.00
2023-03-15T13:17:24.727Z,8.75
2023-03-15T13:18:29.145Z,10.00
2023-03-15T13:19:33.268Z,10.25
2023-03-15T13:20:38.194Z,10.50
2023-03-15T13:21:43.820Z,10.00
2023-03-15T13:22:55.502Z,9.50
2023-03-15T13:23:52.626Z,8.50
2023-03-15T13:24:56.706Z,9.50
2023-03-15T13:26:01.153Z,9.75
2023-03-15T13:27:05.454Z,10.50
2023-03-15T13:28:09.978Z,10.50
2023-03-15T13:29:14.189Z,10.00
2023-03-15T13:30:18.395Z,9.00
2023-03-15T13:31:22.656Z,9.50
2023-03-15T13:32:26.908Z,8.50
2023-03-15T13:33:31.105Z,7.50
2023-03-15T13:34:35.313Z,8.50
2023-03-15T13:35:41.028Z,8.75
2023-03-15T13:36:46.301Z,9.00
2023-03-15T13:37:50.701Z,9.00
2023-03-15T13:38:54.893Z,8.50
2023-03-15T13:39:59.099Z,9.00
2023-03-15T13:41:03.207Z,9.50
2023-03-15T13:42:07.317Z,9.75
2023-03-15T13:43:11.689Z,9.50
2023-03-15T13:44:15.927Z,9.75
2023-03-15T13:45:20.038Z,9.50
2023-03-15T13:46:24.117Z,9.00
2023-03-15T13:47:28.538Z,10.00
2023-03-15T13:48:32.954Z,10.00
2023-03-15T13:49:37.054Z,10.00
2023-03-15T13:50:41.254Z,9.00
2023-03-15T13:51:45.884Z,10.00
2023-03-15T13:52:49.862Z,9.50
2023-03-15T13:53:53.872Z,9.00
2023-03-15T13:54:57.874Z,8.50
2023-03-15T13:56:02.197Z,9.00
2023-03-15T13:57:06.504Z,9.50
2023-03-15T13:58:10.806Z,9.75
2023-03-15T13:59:15.017Z,9.25
2023-03-15T14:00:19.030Z,9.50
2023-03-15T14:01:23.262Z,8.50
2023-03-15T14:02:27.738Z,8.50
2023-03-15T14:03:31.939Z,8.50
2023-03-15T14:04:36.354Z,8.50
2023-03-15T14:05:40.445Z,8.75
2023-03-15T14:06:44.548Z,9.00
2023-03-15T14:07:48.522Z,8.75
2023-03-15T14:08:52.895Z,8.00
2023-03-15T14:09:57.080Z,7.50
2023-03-15T14:11:01.073Z,8.50
2023-03-15T14:12:05.169Z,10.50
2023-03-15T14:13:09.299Z,11.25
2023-03-15T14:14:13.596Z,10.25
2023-03-15T14:15:17.698Z,10.00
2023-03-15T14:16:21.917Z,9.50
2023-03-15T14:17:26.722Z,9.50